sensor_id;sensor_type;location;lat;lon;timestamp;P1;durP1;ratioP1;P2;durP2;ratioP2
60032;SDS011;45905;50.570;10.428;2023-04-25T00:00:29;2.83;;;2.07;;
60032;SDS011;45905;50.570;10.428;2023-04-25T00:02:56;5.67;;;3.27;;
60032;SDS011;45905;50.570;10.428;2023-04-25T00:05:26;3.23;;;2.77;;
60032;SDS011;45905;50.570;10.428;2023-04-25T00:07:53;2.50;;;2.20;;
60032;SDS011;45905;50.570;10.428;2023-04-25T00:10:21;4.43;;;1.80;;
60032;SDS011;45905;50.570;10.428;2023-04-25T00:12:49;9.60;;;3.57;;
60032;SDS011;45905;50.570;10.428;2023-04-25T00:15:16;3.67;;;3.30;;
60032;SDS011;45905;50.570;10.428;2023-04-25T00:17:44;2.03;;;1.57;;
60032;SDS011;45905;50.570;10.428;2023-04-25T00:20:12;5.07;;;3.97;;
60032;SDS011;45905;50.570;10.428;2023-04-25T00:22:39;3.00;;;2.10;;
60032;SDS011;45905;50.570;10.428;2023-04-25T00:25:06;5.53;;;2.37;;
60032;SDS011;45905;50.570;10.428;2023-04-25T00:27:34;3.43;;;1.80;;
60032;SDS011;45905;50.570;10.428;2023-04-25T00:30:02;4.30;;;2.60;;
60032;SDS011;45905;50.570;10.428;2023-04-25T00:32:29;6.00;;;2.83;;
60032;SDS011;45905;50.570;10.428;2023-04-25T00:34:57;5.40;;;3.60;;
60032;SDS011;45905;50.570;10.428;2023-04-25T00:37:24;3.97;;;2.97;;
60032;SDS011;45905;50.570;10.428;2023-04-25T00:39:52;6.27;;;2.97;;
60032;SDS011;45905;50.570;10.428;2023-04-25T00:42:21;4.50;;;2.50;;
60032;SDS011;45905;50.570;10.428;2023-04-25T00:44:48;6.97;;;3.20;;
60032;SDS011;45905;50.570;10.428;2023-04-25T00:47:16;2.47;;;2.10;;
60032;SDS011;45905;50.570;10.428;2023-04-25T00:49:44;5.40;;;2.73;;
60032;SDS011;45905;50.570;10.428;2023-04-25T00:52:11;6.07;;;2.47;;
60032;SDS011;45905;50.570;10.428;2023-04-25T00:54:39;3.67;;;2.03;;
60032;SDS011;45905;50.570;10.428;2023-04-25T00:57:07;2.40;;;1.90;;
60032;SDS011;45905;50.570;10.428;2023-04-25T00:59:34;5.07;;;2.50;;
60032;SDS011;45905;50.570;10.428;2023-04-25T01:02:04;3.27;;;2.20;;
60032;SDS011;45905;50.570;10.428;2023-04-25T01:04:31;4.90;;;2.50;;
60032;SDS011;45905;50.570;10.428;2023-04-25T01:07:00;2.83;;;1.90;;
60032;SDS011;45905;50.570;10.428;2023-04-25T01:09:30;3.40;;;3.10;;
60032;SDS011;45905;50.570;10.428;2023-04-25T01:11:58;8.00;;;2.00;;
60032;SDS011;45905;50.570;10.428;2023-04-25T01:14:26;6.03;;;3.33;;
60032;SDS011;45905;50.570;10.428;2023-04-25T01:16:54;3.93;;;2.37;;
60032;SDS011;45905;50.570;10.428;2023-04-25T01:19:21;2.10;;;1.30;;
60032;SDS011;45905;50.570;10.428;2023-04-25T01:21:50;2.87;;;1.73;;
60032;SDS011;45905;50.570;10.428;2023-04-25T01:24:18;6.00;;;3.03;;
60032;SDS011;45905;50.570;10.428;2023-04-25T01:26:45;5.17;;;2.70;;
60032;SDS011;45905;50.570;10.428;2023-04-25T01:29:23;3.20;;;2.50;;
60032;SDS011;45905;50.570;10.428;2023-04-25T01:31:51;3.43;;;2.60;;
60032;SDS011;45905;50.570;10.428;2023-04-25T01:34:20;3.80;;;2.13;;
60032;SDS011;45905;50.570;10.428;2023-04-25T01:36:49;5.23;;;2.10;;
60032;SDS011;45905;50.570;10.428;2023-04-25T01:39:17;5.40;;;3.13;;
60032;SDS011;45905;50.570;10.428;2023-04-25T01:41:45;2.17;;;1.97;;
60032;SDS011;45905;50.570;10.428;2023-04-25T01:44:14;2.63;;;2.30;;
60032;SDS011;45905;50.570;10.428;2023-04-25T01:46:42;6.17;;;1.70;;
60032;SDS011;45905;50.570;10.428;2023-04-25T01:49:10;6.20;;;3.40;;
60032;SDS011;45905;50.570;10.428;2023-04-25T01:51:39;4.47;;;2.40;;
60032;SDS011;45905;50.570;10.428;2023-04-25T01:54:07;12.33;;;3.17;;
60032;SDS011;45905;50.570;10.428;2023-04-25T01:56:36;6.50;;;2.90;;
60032;SDS011;45905;50.570;10.428;2023-04-25T01:59:06;4.03;;;3.73;;
60032;SDS011;45905;50.570;10.428;2023-04-25T02:01:39;4.20;;;2.47;;
60032;SDS011;45905;50.570;10.428;2023-04-25T02:04:18;4.00;;;2.43;;
60032;SDS011;45905;50.570;10.428;2023-04-25T02:06:46;9.47;;;2.47;;
60032;SDS011;45905;50.570;10.428;2023-04-25T02:09:14;4.77;;;3.57;;
60032;SDS011;45905;50.570;10.428;2023-04-25T02:11:47;4.10;;;2.30;;
60032;SDS011;45905;50.570;10.428;2023-04-25T02:14:36;4.47;;;2.77;;
60032;SDS011;45905;50.570;10.428;2023-04-25T02:17:24;5.63;;;3.17;;
60032;SDS011;45905;50.570;10.428;2023-04-25T02:19:52;15.93;;;3.50;;
60032;SDS011;45905;50.570;10.428;2023-04-25T02:22:19;4.20;;;3.00;;
60032;SDS011;45905;50.570;10.428;2023-04-25T02:24:47;7.00;;;4.03;;
60032;SDS011;45905;50.570;10.428;2023-04-25T02:27:14;6.83;;;3.30;;
60032;SDS011;45905;50.570;10.428;2023-04-25T02:29:41;7.17;;;3.67;;
60032;SDS011;45905;50.570;10.428;2023-04-25T02:32:10;9.53;;;4.03;;
60032;SDS011;45905;50.570;10.428;2023-04-25T02:34:37;7.30;;;2.63;;
60032;SDS011;45905;50.570;10.428;2023-04-25T02:37:04;3.00;;;2.67;;
60032;SDS011;45905;50.570;10.428;2023-04-25T02:39:31;4.27;;;3.60;;
60032;SDS011;45905;50.570;10.428;2023-04-25T02:41:58;5.90;;;3.23;;
60032;SDS011;45905;50.570;10.428;2023-04-25T02:44:28;2.80;;;2.53;;
60032;SDS011;45905;50.570;10.428;2023-04-25T02:46:55;3.83;;;2.67;;
60032;SDS011;45905;50.570;10.428;2023-04-25T02:49:22;4.30;;;2.87;;
60032;SDS011;45905;50.570;10.428;2023-04-25T02:51:51;5.40;;;2.33;;
60032;SDS011;45905;50.570;10.428;2023-04-25T02:54:18;3.47;;;2.50;;
60032;SDS011;45905;50.570;10.428;2023-04-25T02:56:47;6.20;;;3.30;;
60032;SDS011;45905;50.570;10.428;2023-04-25T02:59:19;3.90;;;2.97;;
60032;SDS011;45905;50.570;10.428;2023-04-25T03:01:47;5.83;;;3.67;;
60032;SDS011;45905;50.570;10.428;2023-04-25T03:04:14;6.80;;;4.80;;
60032;SDS011;45905;50.570;10.428;2023-04-25T03:06:41;11.20;;;4.80;;
60032;SDS011;45905;50.570;10.428;2023-04-25T03:09:09;4.93;;;3.03;;
60032;SDS011;45905;50.570;10.428;2023-04-25T03:11:37;3.63;;;3.03;;
60032;SDS011;45905;50.570;10.428;2023-04-25T03:14:05;7.37;;;3.77;;
60032;SDS011;45905;50.570;10.428;2023-04-25T03:16:33;6.30;;;3.33;;
60032;SDS011;45905;50.570;10.428;2023-04-25T03:19:00;4.67;;;3.63;;
60032;SDS011;45905;50.570;10.428;2023-04-25T03:21:29;3.40;;;1.73;;
60032;SDS011;45905;50.570;10.428;2023-04-25T03:24:01;3.33;;;2.87;;
60032;SDS011;45905;50.570;10.428;2023-04-25T03:26:30;7.13;;;3.00;;
60032;SDS011;45905;50.570;10.428;2023-04-25T03:28:58;3.00;;;2.70;;
60032;SDS011;45905;50.570;10.428;2023-04-25T03:31:26;3.53;;;2.67;;
60032;SDS011;45905;50.570;10.428;2023-04-25T03:33:53;6.43;;;2.10;;
60032;SDS011;45905;50.570;10.428;2023-04-25T03:36:22;27.23;;;3.27;;
60032;SDS011;45905;50.570;10.428;2023-04-25T03:38:49;8.30;;;2.40;;
60032;SDS011;45905;50.570;10.428;2023-04-25T03:41:18;3.80;;;2.10;;
60032;SDS011;45905;50.570;10.428;2023-04-25T03:43:51;4.10;;;2.67;;
60032;SDS011;45905;50.570;10.428;2023-04-25T03:46:19;2.67;;;1.93;;
60032;SDS011;45905;50.570;10.428;2023-04-25T03:48:47;4.40;;;2.33;;
60032;SDS011;45905;50.570;10.428;2023-04-25T03:51:20;9.90;;;2.60;;
60032;SDS011;45905;50.570;10.428;2023-04-25T03:53:47;2.33;;;1.93;;
60032;SDS011;45905;50.570;10.428;2023-04-25T03:56:35;3.13;;;2.07;;
60032;SDS011;45905;50.570;10.428;2023-04-25T03:59:13;4.47;;;3.40;;
60032;SDS011;45905;50.570;10.428;2023-04-25T04:01:41;4.07;;;2.70;;
60032;SDS011;45905;50.570;10.428;2023-04-25T04:04:08;7.13;;;3.47;;
60032;SDS011;45905;50.570;10.428;2023-04-25T04:06:35;7.53;;;2.33;;
60032;SDS011;45905;50.570;10.428;2023-04-25T04:09:10;6.50;;;2.77;;
60032;SDS011;45905;50.570;10.428;2023-04-25T04:11:41;2.97;;;1.80;;
60032;SDS011;45905;50.570;10.428;2023-04-25T04:14:08;3.50;;;1.63;;
60032;SDS011;45905;50.570;10.428;2023-04-25T04:16:40;9.63;;;2.07;;
60032;SDS011;45905;50.570;10.428;2023-04-25T04:19:08;2.93;;;1.70;;
60032;SDS011;45905;50.570;10.428;2023-04-25T04:21:37;3.00;;;2.73;;
60032;SDS011;45905;50.570;10.428;2023-04-25T04:24:04;2.43;;;1.60;;
60032;SDS011;45905;50.570;10.428;2023-04-25T04:26:43;5.90;;;2.00;;
60032;SDS011;45905;50.570;10.428;2023-04-25T04:29:28;3.53;;;1.13;;
60032;SDS011;45905;50.570;10.428;2023-04-25T04:32:10;4.17;;;1.60;;
60032;SDS011;45905;50.570;10.428;2023-04-25T04:34:37;3.67;;;1.90;;
60032;SDS011;45905;50.570;10.428;2023-04-25T04:37:06;2.00;;;1.43;;
60032;SDS011;45905;50.570;10.428;2023-04-25T04:39:34;3.80;;;1.60;;
60032;SDS011;45905;50.570;10.428;2023-04-25T04:42:12;3.50;;;1.90;;
60032;SDS011;45905;50.570;10.428;2023-04-25T04:45:01;2.37;;;1.50;;
60032;SDS011;45905;50.570;10.428;2023-04-25T04:48:00;2.97;;;1.67;;
60032;SDS011;45905;50.570;10.428;2023-04-25T04:50:51;6.73;;;2.40;;
60032;SDS011;45905;50.570;10.428;2023-04-25T04:53:44;5.93;;;1.17;;
60032;SDS011;45905;50.570;10.428;2023-04-25T04:56:26;2.80;;;1.77;;
60032;SDS011;45905;50.570;10.428;2023-04-25T04:59:11;2.70;;;1.97;;
60032;SDS011;45905;50.570;10.428;2023-04-25T05:01:56;2.30;;;1.40;;
60032;SDS011;45905;50.570;10.428;2023-04-25T05:04:50;3.27;;;1.80;;
60032;SDS011;45905;50.570;10.428;2023-04-25T05:07:36;2.90;;;1.60;;
60032;SDS011;45905;50.570;10.428;2023-04-25T05:10:23;1.67;;;1.50;;
60032;SDS011;45905;50.570;10.428;2023-04-25T05:13:09;1.60;;;1.50;;
60032;SDS011;45905;50.570;10.428;2023-04-25T05:15:37;1.87;;;1.10;;
60032;SDS011;45905;50.570;10.428;2023-04-25T05:18:24;4.30;;;2.37;;
60032;SDS011;45905;50.570;10.428;2023-04-25T05:21:08;5.63;;;2.30;;
60032;SDS011;45905;50.570;10.428;2023-04-25T05:23:45;1.60;;;1.50;;
60032;SDS011;45905;50.570;10.428;2023-04-25T05:26:35;2.13;;;1.73;;
60032;SDS011;45905;50.570;10.428;2023-04-25T05:29:24;4.43;;;1.83;;
60032;SDS011;45905;50.570;10.428;2023-04-25T05:32:02;1.93;;;1.47;;
60032;SDS011;45905;50.570;10.428;2023-04-25T05:34:29;5.13;;;2.13;;
60032;SDS011;45905;50.570;10.428;2023-04-25T05:37:00;2.93;;;2.07;;
60032;SDS011;45905;50.570;10.428;2023-04-25T05:39:28;6.37;;;1.80;;
60032;SDS011;45905;50.570;10.428;2023-04-25T05:42:25;3.80;;;1.70;;
60032;SDS011;45905;50.570;10.428;2023-04-25T05:45:06;5.83;;;1.37;;
60032;SDS011;45905;50.570;10.428;2023-04-25T05:47:44;3.07;;;1.83;;
60032;SDS011;45905;50.570;10.428;2023-04-25T05:50:30;1.67;;;1.20;;
60032;SDS011;45905;50.570;10.428;2023-04-25T05:53:03;3.27;;;1.53;;
60032;SDS011;45905;50.570;10.428;2023-04-25T05:55:38;3.50;;;2.60;;
60032;SDS011;45905;50.570;10.428;2023-04-25T05:58:19;3.60;;;2.90;;
60032;SDS011;45905;50.570;10.428;2023-04-25T06:00:46;4.20;;;2.57;;
60032;SDS011;45905;50.570;10.428;2023-04-25T06:03:14;17.43;;;1.13;;
60032;SDS011;45905;50.570;10.428;2023-04-25T06:05:45;2.43;;;1.30;;
60032;SDS011;45905;50.570;10.428;2023-04-25T06:08:13;2.13;;;1.93;;
60032;SDS011;45905;50.570;10.428;2023-04-25T06:10:40;3.30;;;1.70;;
60032;SDS011;45905;50.570;10.428;2023-04-25T06:13:07;9.37;;;1.77;;
60032;SDS011;45905;50.570;10.428;2023-04-25T06:15:35;2.77;;;1.67;;
60032;SDS011;45905;50.570;10.428;2023-04-25T06:18:03;2.20;;;1.60;;
60032;SDS011;45905;50.570;10.428;2023-04-25T06:20:30;3.70;;;2.20;;
60032;SDS011;45905;50.570;10.428;2023-04-25T06:22:59;2.83;;;2.63;;
60032;SDS011;45905;50.570;10.428;2023-04-25T06:25:36;1.93;;;1.83;;
60032;SDS011;45905;50.570;10.428;2023-04-25T06:28:04;1.63;;;1.37;;
60032;SDS011;45905;50.570;10.428;2023-04-25T06:30:31;1.47;;;1.27;;
60032;SDS011;45905;50.570;10.428;2023-04-25T06:33:04;6.93;;;2.07;;
60032;SDS011;45905;50.570;10.428;2023-04-25T06:35:32;8.53;;;4.43;;
60032;SDS011;45905;50.570;10.428;2023-04-25T06:37:59;8.83;;;5.03;;
60032;SDS011;45905;50.570;10.428;2023-04-25T06:40:26;6.00;;;2.23;;
60032;SDS011;45905;50.570;10.428;2023-04-25T06:42:54;4.43;;;1.83;;
60032;SDS011;45905;50.570;10.428;2023-04-25T06:45:53;2.57;;;2.07;;
60032;SDS011;45905;50.570;10.428;2023-04-25T06:48:22;2.50;;;2.30;;
60032;SDS011;45905;50.570;10.428;2023-04-25T06:50:50;1.73;;;1.63;;
60032;SDS011;45905;50.570;10.428;2023-04-25T06:53:17;4.37;;;2.20;;
60032;SDS011;45905;50.570;10.428;2023-04-25T06:55:48;2.03;;;1.80;;
60032;SDS011;45905;50.570;10.428;2023-04-25T06:58:19;2.30;;;1.80;;
60032;SDS011;45905;50.570;10.428;2023-04-25T07:01:12;4.77;;;1.07;;
60032;SDS011;45905;50.570;10.428;2023-04-25T07:03:39;2.00;;;1.37;;
60032;SDS011;45905;50.570;10.428;2023-04-25T07:06:12;2.13;;;1.93;;
60032;SDS011;45905;50.570;10.428;2023-04-25T07:08:40;1.40;;;1.13;;
60032;SDS011;45905;50.570;10.428;2023-04-25T07:11:07;1.97;;;1.77;;
60032;SDS011;45905;50.570;10.428;2023-04-25T07:13:35;2.20;;;1.43;;
60032;SDS011;45905;50.570;10.428;2023-04-25T07:16:03;1.80;;;1.10;;
60032;SDS011;45905;50.570;10.428;2023-04-25T07:18:33;2.27;;;1.67;;
60032;SDS011;45905;50.570;10.428;2023-04-25T07:21:00;2.77;;;1.50;;
60032;SDS011;45905;50.570;10.428;2023-04-25T07:23:29;2.30;;;1.83;;
60032;SDS011;45905;50.570;10.428;2023-04-25T07:25:58;1.80;;;1.70;;
60032;SDS011;45905;50.570;10.428;2023-04-25T07:28:26;1.30;;;1.20;;
60032;SDS011;45905;50.570;10.428;2023-04-25T07:30:53;2.70;;;1.83;;
60032;SDS011;45905;50.570;10.428;2023-04-25T07:33:20;4.73;;;2.27;;
60032;SDS011;45905;50.570;10.428;2023-04-25T07:35:48;1.67;;;1.50;;
60032;SDS011;45905;50.570;10.428;2023-04-25T07:38:16;5.20;;;2.67;;
60032;SDS011;45905;50.570;10.428;2023-04-25T07:40:44;1.77;;;1.50;;
60032;SDS011;45905;50.570;10.428;2023-04-25T07:43:11;1.83;;;1.37;;
60032;SDS011;45905;50.570;10.428;2023-04-25T07:45:54;2.17;;;1.53;;
60032;SDS011;45905;50.570;10.428;2023-04-25T07:48:23;2.73;;;1.50;;
60032;SDS011;45905;50.570;10.428;2023-04-25T07:50:51;2.60;;;1.80;;
60032;SDS011;45905;50.570;10.428;2023-04-25T07:53:18;1.93;;;1.47;;
60032;SDS011;45905;50.570;10.428;2023-04-25T07:55:51;2.37;;;1.90;;
60032;SDS011;45905;50.570;10.428;2023-04-25T07:58:20;1.33;;;1.23;;
60032;SDS011;45905;50.570;10.428;2023-04-25T08:00:58;2.37;;;1.37;;
60032;SDS011;45905;50.570;10.428;2023-04-25T08:03:46;5.33;;;1.70;;
60032;SDS011;45905;50.570;10.428;2023-04-25T08:06:20;2.83;;;1.30;;
60032;SDS011;45905;50.570;10.428;2023-04-25T08:09:16;3.57;;;2.23;;
60032;SDS011;45905;50.570;10.428;2023-04-25T08:11:43;3.83;;;1.50;;
60032;SDS011;45905;50.570;10.428;2023-04-25T08:14:14;3.43;;;2.00;;
60032;SDS011;45905;50.570;10.428;2023-04-25T08:16:42;1.40;;;1.03;;
60032;SDS011;45905;50.570;10.428;2023-04-25T08:19:10;3.10;;;1.43;;
60032;SDS011;45905;50.570;10.428;2023-04-25T08:21:37;2.47;;;1.43;;
60032;SDS011;45905;50.570;10.428;2023-04-25T08:24:09;2.13;;;1.93;;
60032;SDS011;45905;50.570;10.428;2023-04-25T08:26:38;1.33;;;1.00;;
60032;SDS011;45905;50.570;10.428;2023-04-25T08:29:09;1.30;;;1.20;;
60032;SDS011;45905;50.570;10.428;2023-04-25T08:31:39;3.03;;;1.77;;
60032;SDS011;45905;50.570;10.428;2023-04-25T08:34:07;4.20;;;1.70;;
60032;SDS011;45905;50.570;10.428;2023-04-25T08:36:40;3.70;;;1.30;;
60032;SDS011;45905;50.570;10.428;2023-04-25T08:39:21;1.20;;;1.10;;
60032;SDS011;45905;50.570;10.428;2023-04-25T08:42:15;2.67;;;1.63;;
60032;SDS011;45905;50.570;10.428;2023-04-25T08:44:42;1.73;;;1.50;;
60032;SDS011;45905;50.570;10.428;2023-04-25T08:47:12;1.80;;;1.60;;
60032;SDS011;45905;50.570;10.428;2023-04-25T08:49:44;1.80;;;1.70;;
60032;SDS011;45905;50.570;10.428;2023-04-25T08:52:14;3.63;;;1.90;;
60032;SDS011;45905;50.570;10.428;2023-04-25T08:54:48;3.40;;;2.07;;
60032;SDS011;45905;50.570;10.428;2023-04-25T08:57:18;1.93;;;1.33;;
60032;SDS011;45905;50.570;10.428;2023-04-25T08:59:48;1.93;;;1.00;;
60032;SDS011;45905;50.570;10.428;2023-04-25T09:02:16;1.60;;;1.00;;
60032;SDS011;45905;50.570;10.428;2023-04-25T09:04:48;2.60;;;2.00;;
60032;SDS011;45905;50.570;10.428;2023-04-25T09:07:16;2.80;;;1.60;;
60032;SDS011;45905;50.570;10.428;2023-04-25T09:09:47;2.03;;;1.63;;
60032;SDS011;45905;50.570;10.428;2023-04-25T09:12:19;1.20;;;0.90;;
60032;SDS011;45905;50.570;10.428;2023-04-25T09:15:01;3.30;;;1.70;;
60032;SDS011;45905;50.570;10.428;2023-04-25T09:17:57;2.00;;;1.23;;
60032;SDS011;45905;50.570;10.428;2023-04-25T09:20:33;1.57;;;1.10;;
60032;SDS011;45905;50.570;10.428;2023-04-25T09:23:18;7.13;;;2.20;;
60032;SDS011;45905;50.570;10.428;2023-04-25T09:25:51;1.50;;;1.40;;
60032;SDS011;45905;50.570;10.428;2023-04-25T09:28:24;2.53;;;1.53;;
60032;SDS011;45905;50.570;10.428;2023-04-25T09:30:57;2.00;;;1.30;;
60032;SDS011;45905;50.570;10.428;2023-04-25T09:33:37;3.40;;;1.40;;
60032;SDS011;45905;50.570;10.428;2023-04-25T09:36:07;1.43;;;1.33;;
60032;SDS011;45905;50.570;10.428;2023-04-25T09:38:59;2.90;;;1.90;;
60032;SDS011;45905;50.570;10.428;2023-04-25T09:41:30;1.47;;;0.90;;
60032;SDS011;45905;50.570;10.428;2023-04-25T09:44:00;2.03;;;0.80;;
60032;SDS011;45905;50.570;10.428;2023-04-25T09:46:35;9.43;;;1.70;;
60032;SDS011;45905;50.570;10.428;2023-04-25T09:49:10;1.70;;;1.23;;
60032;SDS011;45905;50.570;10.428;2023-04-25T09:51:57;3.03;;;2.20;;
60032;SDS011;45905;50.570;10.428;2023-04-25T09:54:31;4.07;;;2.00;;
60032;SDS011;45905;50.570;10.428;2023-04-25T09:57:21;2.43;;;1.30;;
60032;SDS011;45905;50.570;10.428;2023-04-25T09:59:53;1.00;;;0.77;;
60032;SDS011;45905;50.570;10.428;2023-04-25T10:02:26;0.90;;;0.70;;
60032;SDS011;45905;50.570;10.428;2023-04-25T10:05:00;1.47;;;0.90;;
60032;SDS011;45905;50.570;10.428;2023-04-25T10:07:37;1.10;;;0.90;;
60032;SDS011;45905;50.570;10.428;2023-04-25T10:10:09;5.60;;;2.40;;
60032;SDS011;45905;50.570;10.428;2023-04-25T10:12:39;2.30;;;1.20;;
60032;SDS011;45905;50.570;10.428;2023-04-25T10:15:09;2.07;;;1.40;;
60032;SDS011;45905;50.570;10.428;2023-04-25T10:17:37;1.50;;;1.13;;
60032;SDS011;45905;50.570;10.428;2023-04-25T10:20:07;4.83;;;1.20;;
60032;SDS011;45905;50.570;10.428;2023-04-25T10:22:38;1.70;;;1.60;;
60032;SDS011;45905;50.570;10.428;2023-04-25T10:25:09;1.10;;;0.93;;
60032;SDS011;45905;50.570;10.428;2023-04-25T10:27:38;3.87;;;2.13;;
60032;SDS011;45905;50.570;10.428;2023-04-25T10:30:10;2.87;;;2.10;;
60032;SDS011;45905;50.570;10.428;2023-04-25T10:32:42;2.10;;;1.33;;
60032;SDS011;45905;50.570;10.428;2023-04-25T10:35:18;1.20;;;1.10;;
60032;SDS011;45905;50.570;10.428;2023-04-25T10:38:05;1.53;;;1.23;;
60032;SDS011;45905;50.570;10.428;2023-04-25T10:40:37;1.50;;;1.00;;
60032;SDS011;45905;50.570;10.428;2023-04-25T10:46:27;1.13;;;1.03;;
60032;SDS011;45905;50.570;10.428;2023-04-25T10:48:58;1.40;;;1.17;;
60032;SDS011;45905;50.570;10.428;2023-04-25T10:51:29;1.50;;;0.97;;
60032;SDS011;45905;50.570;10.428;2023-04-25T10:54:20;5.90;;;2.27;;
60032;SDS011;45905;50.570;10.428;2023-04-25T10:56:51;3.67;;;1.73;;
60032;SDS011;45905;50.570;10.428;2023-04-25T10:59:19;4.37;;;2.23;;
60032;SDS011;45905;50.570;10.428;2023-04-25T11:01:51;1.60;;;1.00;;
60032;SDS011;45905;50.570;10.428;2023-04-25T11:09:40;4.13;;;2.07;;
60032;SDS011;45905;50.570;10.428;2023-04-25T11:12:08;4.97;;;1.20;;
60032;SDS011;45905;50.570;10.428;2023-04-25T11:14:38;2.73;;;1.47;;
60032;SDS011;45905;50.570;10.428;2023-04-25T11:17:06;2.47;;;2.13;;
60032;SDS011;45905;50.570;10.428;2023-04-25T11:19:33;3.30;;;1.17;;
60032;SDS011;45905;50.570;10.428;2023-04-25T11:22:01;1.37;;;1.17;;
60032;SDS011;45905;50.570;10.428;2023-04-25T11:24:30;8.63;;;1.63;;
60032;SDS011;45905;50.570;10.428;2023-04-25T11:27:01;1.77;;;1.43;;
60032;SDS011;45905;50.570;10.428;2023-04-25T11:29:30;1.00;;;0.90;;
60032;SDS011;45905;50.570;10.428;2023-04-25T11:31:59;1.63;;;1.23;;
60032;SDS011;45905;50.570;10.428;2023-04-25T11:34:31;1.60;;;1.00;;
60032;SDS011;45905;50.570;10.428;2023-04-25T11:37:00;1.30;;;1.13;;
60032;SDS011;45905;50.570;10.428;2023-04-25T11:39:29;2.10;;;1.80;;
60032;SDS011;45905;50.570;10.428;2023-04-25T11:41:56;1.30;;;1.20;;
60032;SDS011;45905;50.570;10.428;2023-04-25T11:44:26;13.13;;;1.20;;
60032;SDS011;45905;50.570;10.428;2023-04-25T11:46:54;1.80;;;1.20;;
60032;SDS011;45905;50.570;10.428;2023-04-25T11:49:22;1.10;;;0.93;;
60032;SDS011;45905;50.570;10.428;2023-04-25T11:51:51;2.90;;;1.30;;
60032;SDS011;45905;50.570;10.428;2023-04-25T11:54:18;4.13;;;1.70;;
60032;SDS011;45905;50.570;10.428;2023-04-25T11:56:46;2.37;;;1.70;;
60032;SDS011;45905;50.570;10.428;2023-04-25T11:59:13;5.17;;;1.50;;
60032;SDS011;45905;50.570;10.428;2023-04-25T12:01:40;1.40;;;1.30;;
60032;SDS011;45905;50.570;10.428;2023-04-25T12:04:22;3.13;;;1.00;;
60032;SDS011;45905;50.570;10.428;2023-04-25T12:06:52;4.57;;;2.37;;
60032;SDS011;45905;50.570;10.428;2023-04-25T12:09:29;2.67;;;1.50;;
60032;SDS011;45905;50.570;10.428;2023-04-25T12:11:59;1.67;;;1.20;;
60032;SDS011;45905;50.570;10.428;2023-04-25T12:14:31;2.70;;;1.50;;
60032;SDS011;45905;50.570;10.428;2023-04-25T12:17:00;4.10;;;1.23;;
60032;SDS011;45905;50.570;10.428;2023-04-25T12:19:34;2.77;;;1.60;;
60032;SDS011;45905;50.570;10.428;2023-04-25T12:22:07;1.20;;;0.93;;
60032;SDS011;45905;50.570;10.428;2023-04-25T12:24:47;5.20;;;1.80;;
60032;SDS011;45905;50.570;10.428;2023-04-25T12:27:15;1.20;;;0.70;;
60032;SDS011;45905;50.570;10.428;2023-04-25T12:29:52;3.03;;;1.57;;
60032;SDS011;45905;50.570;10.428;2023-04-25T12:32:22;1.20;;;0.87;;
60032;SDS011;45905;50.570;10.428;2023-04-25T12:34:50;2.83;;;1.67;;
60032;SDS011;45905;50.570;10.428;2023-04-25T12:37:17;0.90;;;0.77;;
60032;SDS011;45905;50.570;10.428;2023-04-25T12:39:44;1.20;;;1.00;;
60032;SDS011;45905;50.570;10.428;2023-04-25T12:42:11;2.03;;;0.80;;
60032;SDS011;45905;50.570;10.428;2023-04-25T12:44:39;1.33;;;1.07;;
60032;SDS011;45905;50.570;10.428;2023-04-25T12:47:07;5.60;;;1.50;;
60032;SDS011;45905;50.570;10.428;2023-04-25T12:49:34;5.87;;;1.73;;
60032;SDS011;45905;50.570;10.428;2023-04-25T12:52:02;8.50;;;2.60;;
60032;SDS011;45905;50.570;10.428;2023-04-25T12:54:29;9.90;;;1.33;;
60032;SDS011;45905;50.570;10.428;2023-04-25T12:56:56;7.60;;;1.30;;
60032;SDS011;45905;50.570;10.428;2023-04-25T12:59:24;1.33;;;1.07;;
60032;SDS011;45905;50.570;10.428;2023-04-25T13:01:51;4.40;;;1.47;;
60032;SDS011;45905;50.570;10.428;2023-04-25T13:04:19;3.13;;;1.87;;
60032;SDS011;45905;50.570;10.428;2023-04-25T13:06:47;1.20;;;1.00;;
60032;SDS011;45905;50.570;10.428;2023-04-25T13:09:14;2.00;;;1.10;;
60032;SDS011;45905;50.570;10.428;2023-04-25T13:11:42;2.27;;;1.10;;
60032;SDS011;45905;50.570;10.428;2023-04-25T13:14:09;1.27;;;1.17;;
60032;SDS011;45905;50.570;10.428;2023-04-25T13:16:36;1.70;;;1.30;;
60032;SDS011;45905;50.570;10.428;2023-04-25T13:19:03;2.07;;;1.40;;
60032;SDS011;45905;50.570;10.428;2023-04-25T13:21:31;2.33;;;1.23;;
60032;SDS011;45905;50.570;10.428;2023-04-25T13:23:59;7.10;;;2.60;;
60032;SDS011;45905;50.570;10.428;2023-04-25T13:26:26;5.90;;;2.40;;
60032;SDS011;45905;50.570;10.428;2023-04-25T13:28:53;9.27;;;2.10;;
60032;SDS011;45905;50.570;10.428;2023-04-25T13:31:20;3.30;;;1.80;;
60032;SDS011;45905;50.570;10.428;2023-04-25T13:33:47;2.77;;;0.80;;
60032;SDS011;45905;50.570;10.428;2023-04-25T13:36:15;13.67;;;3.30;;
60032;SDS011;45905;50.570;10.428;2023-04-25T13:38:42;6.90;;;1.60;;
60032;SDS011;45905;50.570;10.428;2023-04-25T13:41:11;1.13;;;0.93;;
60032;SDS011;45905;50.570;10.428;2023-04-25T13:43:44;4.40;;;1.77;;
60032;SDS011;45905;50.570;10.428;2023-04-25T13:46:14;13.93;;;1.50;;
60032;SDS011;45905;50.570;10.428;2023-04-25T13:49:02;7.80;;;2.17;;
60032;SDS011;45905;50.570;10.428;2023-04-25T13:51:39;12.00;;;1.87;;
60032;SDS011;45905;50.570;10.428;2023-04-25T13:54:06;8.23;;;2.77;;
60032;SDS011;45905;50.570;10.428;2023-04-25T13:56:34;5.33;;;1.37;;
60032;SDS011;45905;50.570;10.428;2023-04-25T13:59:01;2.67;;;1.27;;
60032;SDS011;45905;50.570;10.428;2023-04-25T14:01:29;12.93;;;1.87;;
60032;SDS011;45905;50.570;10.428;2023-04-25T14:03:57;1.20;;;0.90;;
60032;SDS011;45905;50.570;10.428;2023-04-25T14:06:25;2.40;;;1.03;;
60032;SDS011;45905;50.570;10.428;2023-04-25T14:08:52;1.40;;;0.70;;
60032;SDS011;45905;50.570;10.428;2023-04-25T14:11:20;3.37;;;1.40;;
60032;SDS011;45905;50.570;10.428;2023-04-25T14:13:47;2.97;;;1.00;;
60032;SDS011;45905;50.570;10.428;2023-04-25T14:16:18;0.70;;;0.50;;
60032;SDS011;45905;50.570;10.428;2023-04-25T14:18:46;1.00;;;0.57;;
60032;SDS011;45905;50.570;10.428;2023-04-25T14:21:13;1.30;;;1.20;;
60032;SDS011;45905;50.570;10.428;2023-04-25T14:23:40;1.50;;;1.30;;
60032;SDS011;45905;50.570;10.428;2023-04-25T14:26:07;1.90;;;1.27;;
60032;SDS011;45905;50.570;10.428;2023-04-25T14:28:38;4.70;;;1.30;;
60032;SDS011;45905;50.570;10.428;2023-04-25T14:31:05;2.53;;;1.77;;
60032;SDS011;45905;50.570;10.428;2023-04-25T14:33:33;2.80;;;1.13;;
60032;SDS011;45905;50.570;10.428;2023-04-25T14:36:00;1.27;;;1.17;;
60032;SDS011;45905;50.570;10.428;2023-04-25T14:38:27;5.27;;;1.60;;
60032;SDS011;45905;50.570;10.428;2023-04-25T14:40:55;3.63;;;1.27;;
60032;SDS011;45905;50.570;10.428;2023-04-25T14:43:22;1.60;;;1.00;;
60032;SDS011;45905;50.570;10.428;2023-04-25T14:45:49;3.50;;;1.30;;
60032;SDS011;45905;50.570;10.428;2023-04-25T14:48:16;2.37;;;1.47;;
60032;SDS011;45905;50.570;10.428;2023-04-25T14:50:46;1.73;;;1.10;;
60032;SDS011;45905;50.570;10.428;2023-04-25T14:53:13;1.37;;;1.27;;
60032;SDS011;45905;50.570;10.428;2023-04-25T14:55:40;3.43;;;1.40;;
60032;SDS011;45905;50.570;10.428;2023-04-25T14:58:08;1.70;;;1.00;;
60032;SDS011;45905;50.570;10.428;2023-04-25T15:00:35;1.30;;;0.70;;
60032;SDS011;45905;50.570;10.428;2023-04-25T15:03:03;2.07;;;1.20;;
60032;SDS011;45905;50.570;10.428;2023-04-25T15:05:31;2.50;;;1.27;;